Capt. Ted — WDD6210 — position and weather

sailwx.info

Track history (hours):
 
Tides and Currents Weather Stations Pressure Air Temp Water Temp Dewpoint Dewpoint Depression Visibility Wind Speed Wind Dir Waves Ship Positions

Capt. Ted

Owner: Salisbury Towing Corporation, Havre de Grace, MD. More information available from US FCC via Universal Licensing System and Coast Guard Vessel Documentation Center.

Last reported at 2015-Mar-30 00:33 UTC. Time now 2015-Mar-31 00:21 UTC.
Position N 38°05' W 076°30'.

Length 32 m; draft 2.8 m.

Type: Tug. MMSI: 367169710.

Date/timePositionNaut miles runAvg speedWind from/ knotsBaromVisibWave heightAir tempDewpointWater temp
2015-Mar-30 00:33N 38°05' W 076°30'8 7.5
2015-Mar-29 23:33N 38°01' W 076°22'4 0.5
2015-Mar-29 15:18N 37°59' W 076°18'5 7.1
2015-Mar-29 14:33N 38°02' W 076°23'6 6.5
2015-Mar-29 13:33N 38°05' W 076°30'  
2015-Mar-26 11:20N 38°34' W 077°13'45 5.1
2015-Mar-26 02:33N 38°06' W 076°30'7 7.3
2015-Mar-26 01:33N 38°01' W 076°23'6 0.3
2015-Mar-25 03:20N 38°02' W 076°14'5 0.2
2015-Mar-24 02:22N 38°00' W 076°21'7 8.4
2015-Mar-24 01:33N 38°04' W 076°27'5 0.8
2015-Mar-23 18:22N 38°07' W 076°33'5 5.6
2015-Mar-23 17:33N 38°05' W 076°28'6 5.6
2015-Mar-23 16:32N 38°01' W 076°22'5 5.0
2015-Mar-23 15:32N 37°58' W 076°17'  
2015-Mar-21 09:33N 38°00' W 076°21'7 6.9
2015-Mar-21 08:33N 38°04' W 076°28'  
Track history (hours):
 
Tides and Currents Weather Stations Pressure Air Temp Water Temp Dewpoint Dewpoint Depression Visibility Wind Speed Wind Dir Waves Ship Positions

Capt. Ted

Owner: Salisbury Towing Corporation, Havre de Grace, MD. More information available from US FCC via Universal Licensing System and Coast Guard Vessel Documentation Center.

Last reported at 2015-Mar-30 00:33 UTC. Time now 2015-Mar-31 00:21 UTC.
Position N 38°05' W 076°30'.

Length 32 m; draft 2.8 m.

Type: Tug. MMSI: 367169710.

Date/timePositionNaut miles runAvg speedWind from/ knotsBaromVisibWave heightAir tempDewpointWater temp
2015-Mar-30 00:33N 38°05' W 076°30'8 7.5
2015-Mar-29 23:33N 38°01' W 076°22'4 0.5
2015-Mar-29 15:18N 37°59' W 076°18'5 7.1
2015-Mar-29 14:33N 38°02' W 076°23'6 6.5
2015-Mar-29 13:33N 38°05' W 076°30'  
2015-Mar-26 11:20N 38°34' W 077°13'45 5.1
2015-Mar-26 02:33N 38°06' W 076°30'7 7.3
2015-Mar-26 01:33N 38°01' W 076°23'6 0.3
2015-Mar-25 03:20N 38°02' W 076°14'5 0.2
2015-Mar-24 02:22N 38°00' W 076°21'7 8.4
2015-Mar-24 01:33N 38°04' W 076°27'5 0.8
2015-Mar-23 18:22N 38°07' W 076°33'5 5.6
2015-Mar-23 17:33N 38°05' W 076°28'6 5.6
2015-Mar-23 16:32N 38°01' W 076°22'5 5.0
2015-Mar-23 15:32N 37°58' W 076°17'  
2015-Mar-21 09:33N 38°00' W 076°21'7 6.9
2015-Mar-21 08:33N 38°04' W 076°28'  

Dump ship's entire track history